Time;durP1;ratioP1;P1;durP2;ratioP2;P2;SDS_P1;SDS_P2;PMS_P1;PMS_P2;Temp;Humidity;BMP_temperature;BMP_pressure;BME280_temperature;BME280_humidity;BME280_pressure;Samples;Min_cycle;Max_cycle;Signal;HPM_P1;HPM_P2
2021/03/12 00:02:24;;;;;;;0.70;0.70;;;;;;;4.78;77.84;96217.19;299395;222;63009;-59
2021/03/12 00:07:25;;;;;;;0.70;0.70;;;;;;;4.83;77.50;96222.56;299395;216;63005;-55
2021/03/12 00:12:26;;;;;;;0.60;0.60;;;;;;;4.85;77.27;96223.09;299395;214;63009;-57
2021/03/12 00:17:27;;;;;;;0.60;0.60;;;;;;;5.07;75.03;96226.25;299395;231;63005;-57
2021/03/12 00:22:28;;;;;;;0.60;0.60;;;;;;;5.17;73.79;96242.38;299395;290;63009;-60
2021/03/12 00:27:29;;;;;;;0.70;0.70;;;;;;;5.27;72.99;96236.13;299395;222;63004;-56
2021/03/12 00:32:30;;;;;;;0.60;0.60;;;;;;;5.34;72.88;96244.72;299395;286;63009;-62
2021/03/12 00:37:31;;;;;;;0.60;0.60;;;;;;;5.33;73.06;96249.28;299395;224;63005;-59
2021/03/12 00:42:31;;;;;;;0.60;0.60;;;;;;;5.25;73.73;96257.91;299395;198;63009;-57
2021/03/12 00:47:32;;;;;;;0.60;0.60;;;;;;;5.32;72.18;96261.13;299395;317;63005;-54
2021/03/12 00:52:33;;;;;;;0.70;0.70;;;;;;;5.37;71.54;96271.88;299395;276;63009;-55
2021/03/12 00:57:34;;;;;;;0.60;0.60;;;;;;;5.39;70.59;96275.09;299395;223;63004;-56
2021/03/12 01:02:36;;;;;;;0.62;0.62;;;;;;;5.55;69.10;96289.28;299395;285;63009;-63
2021/03/12 01:07:37;;;;;;;0.70;0.70;;;;;;;5.45;68.71;96291.22;299395;214;63005;-57
2021/03/12 01:12:38;;;;;;;0.60;0.60;;;;;;;5.50;69.06;96310.03;299395;331;63008;-61
2021/03/12 01:17:39;;;;;;;0.60;0.60;;;;;;;5.63;67.44;96301.34;299395;225;63004;-55
2021/03/12 01:22:41;;;;;;;0.60;0.60;;;;;;;5.46;68.71;96317.03;299395;209;63009;-58
2021/03/12 01:27:42;;;;;;;0.60;0.60;;;;;;;5.57;67.51;96300.56;299395;308;63004;-57
2021/03/12 01:32:44;;;;;;;0.60;0.60;;;;;;;5.71;64.71;96303.47;299395;260;63009;-57
2021/03/12 01:37:45;;;;;;;0.70;0.70;;;;;;;5.50;66.33;96307.34;299395;301;63005;-63
2021/03/12 01:42:46;;;;;;;0.60;0.60;;;;;;;5.50;65.74;96307.34;299395;264;63008;-57
2021/03/12 01:47:49;;;;;;;0.60;0.60;;;;;;;5.41;66.44;96328.63;299395;262;63004;-57
2021/03/12 01:52:50;;;;;;;0.70;0.70;;;;;;;5.41;67.35;96350.16;299395;268;63009;-58
2021/03/12 01:57:51;;;;;;;0.60;0.60;;;;;;;5.36;68.00;96383.25;299395;221;63012;-59
2021/03/12 02:02:52;;;;;;;0.60;0.60;;;;;;;5.27;68.76;96379.50;299395;321;63009;-59
2021/03/12 02:07:53;;;;;;;0.70;0.70;;;;;;;5.15;70.01;96381.66;299395;333;63005;-59
2021/03/12 02:13:44;;;;;;;0.70;0.70;;;;;;;5.00;69.86;96370.91;299395;377;63009;-57
2021/03/12 02:19:18;;;;;;;0.70;0.70;;;;;;;4.99;69.04;96353.16;299395;218;63009;-59
2021/03/12 02:25:08;;;;;;;0.65;0.65;;;;;;;4.86;69.53;96359.06;299395;262;63005;-59
2021/03/12 02:30:11;;;;;;;0.60;0.60;;;;;;;4.79;69.63;96372.81;299395;332;63009;-60
2021/03/12 02:35:17;;;;;;;0.60;0.60;;;;;;;4.85;68.28;96370.94;299395;203;63004;-57
2021/03/12 02:40:21;;;;;;;0.70;0.70;;;;;;;4.80;68.30;96357.50;299395;218;63009;-58
2021/03/12 02:45:22;;;;;;;0.70;0.70;;;;;;;4.85;67.59;96360.19;299395;335;63005;-56
2021/03/12 02:50:24;;;;;;;0.60;0.60;;;;;;;4.67;68.74;96354.25;299395;303;63009;-56
2021/03/12 02:55:25;;;;;;;0.70;0.70;;;;;;;4.85;66.91;96360.97;299395;251;63004;-57
2021/03/12 03:00:27;;;;;;;0.62;0.62;;;;;;;4.86;67.54;96356.38;299395;302;63009;-59
2021/03/12 03:05:29;;;;;;;0.60;0.60;;;;;;;4.63;69.46;96363.13;299395;244;63005;-59
2021/03/12 03:10:30;;;;;;;0.70;0.70;;;;;;;4.64;68.95;96365.53;299395;262;63009;-59
2021/03/12 03:15:31;;;;;;;0.60;0.60;;;;;;;4.61;69.42;96359.88;299395;215;63005;-61
2021/03/12 03:20:33;;;;;;;0.70;0.70;;;;;;;4.64;68.37;96349.41;299395;202;63009;-57
2021/03/12 03:25:34;;;;;;;0.60;0.60;;;;;;;4.84;65.26;96359.38;299395;259;63004;-60
2021/03/12 03:30:36;;;;;;;0.70;0.70;;;;;;;5.00;63.33;96371.72;299395;219;63009;-60
2021/03/12 03:35:37;;;;;;;0.60;0.60;;;;;;;4.82;64.95;96384.91;299395;268;63005;-63
2021/03/12 03:40:38;;;;;;;0.68;0.68;;;;;;;4.80;64.37;96392.44;299395;202;63009;-58
2021/03/12 03:45:40;;;;;;;0.70;0.70;;;;;;;4.94;62.75;96396.19;299395;202;63005;-56
2021/03/12 03:50:43;;;;;;;0.70;0.70;;;;;;;4.95;61.95;96435.44;299395;362;63009;-56
2021/03/12 03:55:48;;;;;;;0.70;0.70;;;;;;;5.13;58.95;96412.59;299395;234;63004;-57
2021/03/12 04:00:50;;;;;;;;;;;;;;;4.86;59.95;96448.59;299996;983;6004;-59
2021/03/12 04:05:55;;;;;;;0.60;0.60;;;;;;;4.76;59.46;96437.03;299400;211;63009;-57
2021/03/12 04:10:58;;;;;;;0.70;0.70;;;;;;;4.68;60.21;96462.56;299395;225;63004;-58
2021/03/12 04:15:59;;;;;;;0.60;0.60;;;;;;;4.78;59.35;96456.41;299395;231;63009;-60
2021/03/12 04:21:01;;;;;;;0.70;0.70;;;;;;;4.69;59.43;96470.34;299395;217;63005;-57
2021/03/12 04:26:03;;;;;;;0.60;0.60;;;;;;;4.71;59.33;96472.78;299395;202;63017;-54
2021/03/12 04:31:05;;;;;;;0.70;0.70;;;;;;;4.81;58.38;96456.69;299395;212;63004;-58
2021/03/12 04:36:07;;;;;;;0.70;0.70;;;;;;;4.83;57.61;96464.47;299395;205;63019;-57
2021/03/12 04:41:09;;;;;;;0.60;0.60;;;;;;;4.76;57.96;96480.06;299395;228;63004;-60
2021/03/12 04:46:12;;;;;;;0.70;0.70;;;;;;;4.60;59.89;96481.88;299395;293;63009;-56
2021/03/12 04:51:13;;;;;;;0.60;0.60;;;;;;;4.74;58.50;96487.56;299395;226;63005;-56
2021/03/12 04:56:15;;;;;;;0.60;0.60;;;;;;;4.79;56.62;96482.22;299396;326;63008;-56
2021/03/12 05:01:17;;;;;;;0.60;0.60;;;;;;;4.67;58.17;96488.63;299396;202;63004;-59
2021/03/12 05:06:18;;;;;;;0.60;0.60;;;;;;;4.60;57.37;96501.50;299396;214;63009;-57
2021/03/12 05:11:20;;;;;;;0.60;0.60;;;;;;;4.49;58.73;96507.94;299396;215;63004;-57
2021/03/12 05:16:21;;;;;;;0.70;0.70;;;;;;;4.53;58.33;96519.75;299396;281;63009;-60
2021/03/12 05:21:22;;;;;;;0.70;0.70;;;;;;;4.38;58.42;96506.25;299396;209;63005;-57
2021/03/12 05:26:23;;;;;;;0.60;0.60;;;;;;;4.41;58.84;96508.44;299396;233;63009;-53
2021/03/12 05:31:30;;;;;;;0.70;0.70;;;;;;;4.40;58.67;96508.69;299396;202;63004;-58
2021/03/12 05:36:31;;;;;;;0.70;0.70;;;;;;;4.48;58.95;96516.25;299396;296;63009;-58
2021/03/12 05:41:36;;;;;;;0.70;0.70;;;;;;;4.36;59.95;96528.00;299397;254;63005;-56
2021/03/12 05:46:37;;;;;;;0.70;0.70;;;;;;;4.24;60.67;96526.59;299419;223;63009;-58
2021/03/12 05:51:39;;;;;;;0.60;0.60;;;;;;;4.28;61.03;96520.44;299396;204;63005;-58
2021/03/12 05:56:40;;;;;;;0.60;0.60;;;;;;;4.35;60.20;96523.72;299396;212;63009;-58
2021/03/12 06:01:41;;;;;;;0.70;0.70;;;;;;;4.41;60.12;96516.47;299396;222;63004;-59
2021/03/12 06:06:43;;;;;;;0.70;0.70;;;;;;;4.37;60.69;96515.38;299396;198;63009;-58
2021/03/12 06:11:44;;;;;;;0.70;0.70;;;;;;;4.33;60.93;96516.97;299396;244;63005;-59
2021/03/12 06:16:49;;;;;;;0.70;0.70;;;;;;;4.09;62.90;96531.91;299396;198;63009;-60
2021/03/12 06:21:50;;;;;;;0.60;0.60;;;;;;;4.15;62.68;96512.06;299396;341;63005;-58
2021/03/12 06:26:52;;;;;;;0.70;0.70;;;;;;;4.17;63.30;96517.97;299396;214;63009;-58
2021/03/12 06:31:53;;;;;;;0.60;0.60;;;;;;;4.23;62.91;96519.63;299396;263;63004;-58
2021/03/12 06:36:54;;;;;;;0.62;0.62;;;;;;;4.08;64.41;96538.34;299397;247;63009;-59
2021/03/12 06:41:55;;;;;;;0.60;0.60;;;;;;;4.35;63.48;96544.38;299397;215;63005;-59
2021/03/12 06:46:56;;;;;;;0.70;0.70;;;;;;;4.43;63.16;96543.09;299395;219;63017;-57
2021/03/12 06:52:05;;;;;;;0.70;0.70;;;;;;;4.32;63.92;96569.09;299395;235;63005;-59
2021/03/12 06:57:19;;;;;;;0.60;0.60;;;;;;;4.50;62.94;96552.53;299395;223;63009;-63
2021/03/12 07:02:31;;;;;;;0.60;0.60;;;;;;;4.38;64.25;96576.91;299417;210;63004;-56
2021/03/12 07:07:41;;;;;;;0.70;0.70;;;;;;;4.36;66.29;96583.59;299395;216;63009;-60
2021/03/12 07:12:51;;;;;;;0.70;0.70;;;;;;;4.38;66.23;96586.84;299395;219;63005;-58
2021/03/12 07:17:52;;;;;;;0.60;0.60;;;;;;;4.36;67.72;96595.16;299395;214;63008;-59
2021/03/12 07:22:56;;;;;;;0.70;0.70;;;;;;;4.48;66.77;96584.22;299395;286;63004;-58
2021/03/12 07:28:02;;;;;;;0.70;0.70;;;;;;;4.49;67.16;96585.03;299439;203;63009;-58
2021/03/12 07:33:04;;;;;;;0.70;0.70;;;;;;;4.76;66.15;96584.88;299395;204;63005;-61
2021/03/12 07:38:10;;;;;;;0.68;0.68;;;;;;;5.02;63.82;96589.25;299395;308;63009;-57
2021/03/12 07:43:13;;;;;;;0.60;0.60;;;;;;;4.98;64.01;96590.84;299395;196;63005;-59
2021/03/12 07:48:16;;;;;;;0.70;0.70;;;;;;;4.94;63.73;96581.69;299395;204;63009;-59
2021/03/12 07:53:17;;;;;;;0.70;0.70;;;;;;;4.98;63.61;96593.53;299377;357;125004;-59
2021/03/12 07:58:57;;;;;;;0.68;0.68;;;;;;;4.89;64.65;96611.25;299395;308;63009;-59
2021/03/12 08:03:58;;;;;;;0.70;0.70;;;;;;;5.10;62.74;96612.13;299395;338;63005;-57
2021/03/12 08:09:00;;;;;;;0.70;0.70;;;;;;;5.08;63.44;96617.78;299395;211;63009;-58
2021/03/12 08:14:17;;;;;;;0.70;0.70;;;;;;;5.01;64.25;96622.59;299395;313;63005;-56
2021/03/12 08:19:32;;;;;;;0.70;0.70;;;;;;;5.15;64.60;96618.34;299395;248;63009;-55
2021/03/12 08:24:51;;;;;;;0.70;0.70;;;;;;;5.63;62.33;96619.75;299417;272;63004;-57
2021/03/12 08:29:53;;;;;;;0.60;0.60;;;;;;;5.92;62.00;96621.97;299395;350;63009;-57
2021/03/12 08:34:54;;;;;;;0.60;0.60;;;;;;;6.52;59.96;96609.50;299394;332;64009;-55
2021/03/12 08:40:19;;;;;;;0.60;0.60;;;;;;;6.86;59.21;96604.28;299395;232;63008;-57
2021/03/12 08:45:46;;;;;;;0.60;0.60;;;;;;;6.72;57.23;96609.44;299422;198;63009;-58
2021/03/12 08:51:06;;;;;;;0.60;0.60;;;;;;;6.24;58.48;96592.03;299395;251;63009;-56
2021/03/12 08:56:11;;;;;;;0.60;0.60;;;;;;;5.92;59.63;96616.56;299395;257;63005;-55
2021/03/12 09:01:15;;;;;;;0.60;0.60;;;;;;;6.07;59.26;96586.13;299395;253;63009;-53
2021/03/12 09:06:25;;;;;;;0.60;0.60;;;;;;;6.25;58.74;96589.06;299417;275;63004;-58
2021/03/12 09:11:27;;;;;;;0.60;0.60;;;;;;;6.55;56.58;96582.00;299395;199;63009;-64
2021/03/12 09:16:30;;;;;;;1.08;1.08;;;;;;;6.59;53.58;96578.47;299395;202;63004;-56
2021/03/12 09:21:32;;;;;;;0.70;0.70;;;;;;;6.48;53.44;96571.50;299395;202;63009;-57
2021/03/12 09:26:35;;;;;;;0.60;0.60;;;;;;;6.31;56.30;96579.88;299395;199;63005;-57
2021/03/12 09:31:39;;;;;;;0.60;0.60;;;;;;;6.45;54.32;96563.16;299395;239;63008;-57
2021/03/12 09:36:50;;;;;;;0.60;0.60;;;;;;;6.55;53.64;96572.03;299395;324;63004;-58
2021/03/12 09:42:00;;;;;;;0.70;0.70;;;;;;;6.62;54.13;96585.19;299395;287;63009;-56
2021/03/12 09:47:09;;;;;;;0.70;0.70;;;;;;;6.61;53.99;96587.09;299395;219;63004;-59
2021/03/12 09:52:13;;;;;;;0.70;0.70;;;;;;;6.61;54.67;96581.69;299395;276;63009;-57
2021/03/12 09:57:19;;;;;;;0.70;0.70;;;;;;;6.63;54.31;96579.53;299417;232;63005;-57
2021/03/12 10:02:21;;;;;;;0.60;0.60;;;;;;;6.61;54.20;96570.91;299395;195;63008;-61
2021/03/12 10:07:22;;;;;;;0.60;0.60;;;;;;;6.62;54.37;96588.69;299395;284;63004;-60
2021/03/12 10:12:26;;;;;;;0.60;0.60;;;;;;;6.56;54.26;96594.41;299395;333;63009;-57
2021/03/12 10:17:28;;;;;;;0.70;0.70;;;;;;;6.53;56.36;96590.38;299479;393;125003;-55
2021/03/12 10:22:44;;;;;;;0.70;0.70;;;;;;;6.63;56.03;96584.91;299395;219;63009;-57
2021/03/12 10:27:49;;;;;;;0.60;0.60;;;;;;;6.70;55.54;96593.53;299395;223;63005;-59
2021/03/12 10:32:53;;;;;;;0.70;0.70;;;;;;;6.82;59.11;96597.81;299417;224;63009;-59
2021/03/12 10:38:16;;;;;;;0.60;0.60;;;;;;;7.03;60.39;96610.13;299395;196;63004;-56
2021/03/12 10:43:22;;;;;;;0.60;0.60;;;;;;;7.07;59.99;96601.19;299395;291;63009;-56
2021/03/12 10:48:26;;;;;;;0.60;0.60;;;;;;;6.93;60.02;96594.00;299395;217;63005;-58
2021/03/12 10:53:28;;;;;;;0.70;0.70;;;;;;;7.21;59.77;96581.72;299417;224;63009;-59
2021/03/12 10:58:32;;;;;;;0.60;0.60;;;;;;;7.34;58.07;96583.78;299395;243;63005;-60
2021/03/12 11:03:33;;;;;;;0.60;0.60;;;;;;;7.24;58.44;96568.47;299417;226;63009;-58
2021/03/12 11:08:35;;;;;;;0.60;0.60;;;;;;;7.32;57.12;96548.16;299395;203;63004;-58
2021/03/12 11:13:39;;;;;;;0.60;0.60;;;;;;;7.20;54.50;96535.03;299395;210;63009;-57
2021/03/12 11:18:42;;;;;;;0.60;0.60;;;;;;;7.20;53.78;96528.81;299417;218;63005;-55
2021/03/12 11:23:44;;;;;;;0.60;0.60;;;;;;;7.43;51.78;96505.72;299395;223;63008;-58
2021/03/12 11:28:48;;;;;;;0.60;0.60;;;;;;;7.66;49.91;96513.06;299395;202;63004;-57
2021/03/12 11:33:49;;;;;;;0.60;0.60;;;;;;;7.86;50.15;96494.00;299417;227;63009;-56
2021/03/12 11:38:50;;;;;;;0.60;0.60;;;;;;;8.24;51.82;96523.88;299395;269;63004;-58
2021/03/12 11:43:51;;;;;;;0.60;0.60;;;;;;;8.31;45.84;96490.03;299395;204;63009;-53
2021/03/12 11:48:53;;;;;;;0.60;0.60;;;;;;;8.30;46.85;96482.19;299395;223;63005;-60
2021/03/12 11:53:54;;;;;;;0.60;0.60;;;;;;;8.24;46.01;96451.72;299395;196;63008;-56
2021/03/12 11:58:55;;;;;;;0.60;0.60;;;;;;;8.16;47.03;96449.63;299395;228;63004;-54
2021/03/12 12:03:56;;;;;;;0.60;0.60;;;;;;;8.27;45.04;96445.72;299395;202;63009;-57
2021/03/12 12:08:57;;;;;;;0.60;0.60;;;;;;;7.96;46.61;96444.47;299395;369;63004;-59
2021/03/12 12:13:58;;;;;;;0.60;0.60;;;;;;;8.22;43.43;96434.16;299395;202;63009;-56
2021/03/12 12:19:08;;;;;;;0.60;0.60;;;;;;;8.46;42.57;96434.97;299395;215;63005;-57
2021/03/12 12:24:10;;;;;;;0.80;0.80;;;;;;;8.44;43.91;96445.28;299395;222;63009;-51
2021/03/12 12:29:11;;;;;;;0.60;0.60;;;;;;;8.25;45.40;96447.13;299395;285;63004;-54
2021/03/12 12:34:12;;;;;;;0.60;0.60;;;;;;;8.60;42.94;96430.47;299395;211;63009;-62
2021/03/12 12:39:13;;;;;;;0.60;0.60;;;;;;;8.89;45.58;96434.94;299395;225;63005;-56
2021/03/12 12:44:15;;;;;;;0.60;0.60;;;;;;;9.18;46.40;96445.59;299395;276;63009;-55
2021/03/12 12:49:17;;;;;;;0.60;0.60;;;;;;;8.86;46.66;96430.91;299395;224;63005;-59
2021/03/12 12:54:19;;;;;;;0.60;0.60;;;;;;;8.74;46.71;96447.56;299395;209;63009;-57
2021/03/12 12:59:24;;;;;;;0.60;0.60;;;;;;;8.58;44.54;96451.59;299395;288;63004;-62
2021/03/12 13:04:25;;;;;;;0.60;0.60;;;;;;;8.23;43.51;96427.69;299395;241;63009;-63
2021/03/12 13:09:26;;;;;;;0.60;0.60;;;;;;;8.06;45.35;96431.63;299395;277;63005;-57
2021/03/12 13:14:27;;;;;;;0.60;0.60;;;;;;;8.10;46.42;96433.75;299395;244;63009;-60
2021/03/12 13:19:29;;;;;;;0.60;0.60;;;;;;;8.27;43.39;96426.00;299395;230;63005;-55
2021/03/12 13:24:31;;;;;;;0.60;0.60;;;;;;;8.45;43.91;96414.44;299395;198;63009;-54
2021/03/12 13:29:32;;;;;;;0.60;0.60;;;;;;;8.51;43.74;96412.47;299395;212;63004;-58
2021/03/12 13:34:35;;;;;;;0.60;0.60;;;;;;;8.33;44.14;96417.56;299395;233;63009;-60
2021/03/12 13:39:36;;;;;;;0.60;0.60;;;;;;;8.53;43.48;96400.28;299395;260;63005;-58
2021/03/12 13:44:37;;;;;;;0.60;0.60;;;;;;;8.77;42.88;96392.09;299395;208;63009;-60
2021/03/12 13:49:38;;;;;;;0.60;0.60;;;;;;;8.75;43.28;96386.16;299395;218;63005;-53
2021/03/12 13:54:39;;;;;;;0.60;0.60;;;;;;;8.60;42.59;96367.47;299395;197;63009;-54
2021/03/12 13:59:39;;;;;;;0.60;0.60;;;;;;;8.79;41.65;96370.16;299395;239;63004;-54
2021/03/12 14:04:40;;;;;;;0.60;0.60;;;;;;;8.84;41.41;96361.97;299395;202;63009;-55
2021/03/12 14:09:41;;;;;;;0.60;0.60;;;;;;;8.86;42.20;96354.34;299395;199;63005;-62
2021/03/12 14:14:42;;;;;;;0.60;0.60;;;;;;;8.70;41.26;96351.06;299395;242;63009;-61
2021/03/12 14:19:43;;;;;;;0.60;0.60;;;;;;;8.55;42.57;96354.00;299395;265;63005;-59
2021/03/12 14:24:44;;;;;;;0.60;0.60;;;;;;;8.66;42.67;96340.03;299395;250;63009;-55
2021/03/12 14:29:45;;;;;;;0.60;0.60;;;;;;;9.08;42.05;96338.28;299395;316;63004;-56
2021/03/12 14:34:46;;;;;;;0.60;0.60;;;;;;;9.03;42.00;96332.94;299395;242;63009;-58
2021/03/12 14:39:47;;;;;;;0.57;0.57;;;;;;;8.84;40.69;96324.09;299395;211;63005;-57
2021/03/12 14:44:49;;;;;;;0.50;0.50;;;;;;;8.62;42.70;96339.03;299395;233;63008;-59
2021/03/12 14:49:50;;;;;;;0.70;0.70;;;;;;;8.67;43.04;96347.03;299395;196;63004;-66
2021/03/12 14:54:50;;;;;;;0.60;0.60;;;;;;;8.67;45.54;96368.69;299395;209;63009;-59
2021/03/12 14:59:52;;;;;;;0.60;0.60;;;;;;;8.81;47.06;96401.22;299395;246;63004;-58
2021/03/12 15:04:53;;;;;;;0.60;0.60;;;;;;;8.40;49.35;96399.09;299395;224;63009;-58
2021/03/12 15:09:54;;;;;;;0.60;0.60;;;;;;;8.00;51.45;96376.03;299395;219;63005;-60
2021/03/12 15:14:55;;;;;;;0.60;0.60;;;;;;;7.91;52.88;96358.09;299395;227;63008;-57
2021/03/12 15:19:56;;;;;;;0.60;0.60;;;;;;;8.07;53.18;96352.19;299395;226;63004;-62
2021/03/12 15:24:57;;;;;;;0.60;0.60;;;;;;;8.27;51.88;96334.91;299395;204;63009;-57
2021/03/12 15:29:58;;;;;;;0.60;0.60;;;;;;;8.34;50.43;96315.62;299395;272;63004;-64
2021/03/12 15:34:59;;;;;;;0.60;0.60;;;;;;;8.21;50.55;96311.75;299395;214;63009;-58
2021/03/12 15:40:00;;;;;;;0.60;0.60;;;;;;;8.55;51.31;96311.56;299395;271;63014;-61
2021/03/12 15:45:03;;;;;;;0.60;0.60;;;;;;;9.02;48.71;96294.25;299395;224;63021;-58
2021/03/12 15:50:09;;;;;;;0.60;0.60;;;;;;;8.84;47.97;96297.84;299395;204;63004;-59
2021/03/12 15:55:12;;;;;;;0.60;0.60;;;;;;;8.90;47.42;96279.63;299395;308;63009;-59
2021/03/12 16:00:14;;;;;;;0.60;0.60;;;;;;;8.70;49.08;96286.97;299395;292;63005;-59
2021/03/12 16:05:15;;;;;;;0.60;0.60;;;;;;;8.49;49.12;96293.81;299395;397;63009;-59
2021/03/12 16:10:17;;;;;;;0.60;0.60;;;;;;;8.31;48.97;96289.19;299395;236;63010;-62
2021/03/12 16:15:18;;;;;;;0.60;0.60;;;;;;;7.91;51.67;96299.47;299395;229;63009;-55
2021/03/12 16:20:21;;;;;;;0.60;0.60;;;;;;;7.81;52.50;96302.28;299395;371;63004;-60
2021/03/12 16:25:26;;;;;;;0.60;0.60;;;;;;;7.79;53.31;96304.47;299394;210;64013;-59
2021/03/12 16:30:27;;;;;;;0.60;0.60;;;;;;;7.65;54.04;96300.84;299417;231;63010;-59
2021/03/12 16:35:29;;;;;;;0.60;0.60;;;;;;;7.58;54.84;96292.31;299395;202;63009;-60
2021/03/12 16:40:30;;;;;;;0.70;0.70;;;;;;;7.74;53.89;96291.81;299395;222;63005;-57
2021/03/12 16:45:31;;;;;;;0.60;0.60;;;;;;;7.62;53.88;96263.66;299395;210;63009;-61
2021/03/12 16:50:31;;;;;;;0.60;0.60;;;;;;;7.58;54.11;96254.53;299395;212;63004;-65
2021/03/12 16:55:34;;;;;;;0.60;0.60;;;;;;;7.45;54.07;96274.91;299395;209;63009;-64
2021/03/12 17:00:35;;;;;;;0.60;0.60;;;;;;;7.23;55.40;96259.25;299395;212;63001;-60
2021/03/12 17:05:36;;;;;;;0.60;0.60;;;;;;;7.22;55.01;96249.53;299395;202;63009;-63
2021/03/12 17:10:38;;;;;;;0.60;0.60;;;;;;;7.05;55.90;96257.25;299395;259;63004;-60
2021/03/12 17:15:39;;;;;;;0.60;0.60;;;;;;;6.86;55.84;96243.72;299395;233;63030;-54
2021/03/12 17:20:40;;;;;;;0.60;0.60;;;;;;;6.71;56.64;96241.13;299395;252;63004;-61
2021/03/12 17:25:41;;;;;;;0.60;0.60;;;;;;;6.61;57.16;96263.59;299395;227;63009;-58
2021/03/12 17:30:42;;;;;;;0.60;0.60;;;;;;;6.55;56.95;96256.66;299396;256;63005;-55
2021/03/12 17:35:43;;;;;;;0.68;0.68;;;;;;;6.73;55.84;96264.03;299396;332;63008;-61
2021/03/12 17:40:45;;;;;;;0.70;0.70;;;;;;;6.66;56.52;96273.53;299396;305;63004;-60
2021/03/12 17:45:46;;;;;;;0.60;0.60;;;;;;;6.66;56.01;96268.94;299396;222;63009;-58
2021/03/12 17:50:47;;;;;;;0.60;0.60;;;;;;;6.31;57.55;96266.53;299396;218;63004;-58
2021/03/12 17:55:50;;;;;;;0.60;0.60;;;;;;;6.45;56.86;96264.00;299396;196;63019;-61
2021/03/12 18:00:51;;;;;;;0.70;0.70;;;;;;;6.42;56.89;96260.00;299396;229;63005;-57
2021/03/12 18:05:52;;;;;;;0.60;0.60;;;;;;;6.55;55.80;96248.56;299396;239;63008;-56
2021/03/12 18:10:54;;;;;;;0.60;0.60;;;;;;;6.56;55.42;96260.97;299396;253;63004;-57
2021/03/12 18:15:55;;;;;;;0.60;0.60;;;;;;;6.59;55.57;96271.16;299397;293;63009;-55
2021/03/12 18:20:58;;;;;;;0.60;0.60;;;;;;;6.75;55.10;96249.47;299397;214;63004;-54
2021/03/12 18:25:59;;;;;;;0.60;0.60;;;;;;;6.50;56.10;96256.69;299396;245;63009;-58
2021/03/12 18:31:01;;;;;;;0.60;0.60;;;;;;;6.43;56.79;96250.81;299396;298;63005;-59
2021/03/12 18:36:05;;;;;;;0.60;0.60;;;;;;;6.28;57.14;96254.44;299396;242;63009;-60
2021/03/12 18:41:06;;;;;;;0.60;0.60;;;;;;;6.09;58.22;96260.78;299396;202;63004;-60
2021/03/12 18:46:08;;;;;;;0.60;0.60;;;;;;;6.22;57.64;96257.47;299396;222;63009;-59
2021/03/12 18:51:09;;;;;;;0.60;0.60;;;;;;;6.25;57.71;96259.56;299396;216;63005;-56
2021/03/12 18:56:10;;;;;;;0.70;0.70;;;;;;;6.17;58.34;96252.91;299396;277;63009;-59
2021/03/12 19:01:13;;;;;;;0.65;0.65;;;;;;;6.31;57.65;96251.16;299396;199;63005;-60
2021/03/12 19:06:15;;;;;;;0.60;0.60;;;;;;;6.19;58.06;96231.88;299396;266;63009;-61
2021/03/12 19:11:16;;;;;;;0.70;0.70;;;;;;;6.23;57.95;96232.12;299396;218;63004;-55
2021/03/12 19:16:18;;;;;;;0.70;0.70;;;;;;;6.28;57.60;96210.50;299397;307;63009;-57
2021/03/12 19:21:19;;;;;;;0.70;0.70;;;;;;;6.17;58.15;96207.13;299395;246;63005;-58
2021/03/12 19:26:20;;;;;;;0.70;0.70;;;;;;;6.19;57.85;96202.25;299395;220;63009;-56
2021/03/12 19:31:21;;;;;;;0.60;0.60;;;;;;;6.23;57.47;96191.72;299395;264;63005;-58
2021/03/12 19:36:23;;;;;;;0.68;0.68;;;;;;;6.29;57.25;96206.72;299395;198;63009;-57
2021/03/12 19:41:24;;;;;;;0.70;0.70;;;;;;;6.12;58.17;96211.72;299395;313;63004;-57
2021/03/12 19:46:26;;;;;;;0.73;0.73;;;;;;;6.32;57.43;96200.78;299395;277;63009;-56
2021/03/12 19:51:27;;;;;;;0.60;0.60;;;;;;;6.16;58.36;96191.22;299395;368;63005;-58
2021/03/12 19:56:28;;;;;;;0.70;0.70;;;;;;;6.22;58.17;96190.13;299395;227;63009;-57
2021/03/12 20:01:30;;;;;;;0.70;0.70;;;;;;;6.03;58.45;96190.78;299395;225;63005;-58
2021/03/12 20:06:30;;;;;;;0.60;0.60;;;;;;;5.91;59.04;96187.63;299395;249;63005;-61
2021/03/12 20:11:31;;;;;;;0.70;0.70;;;;;;;6.06;58.50;96192.09;299395;203;63004;-58
2021/03/12 20:16:32;;;;;;;0.70;0.70;;;;;;;6.03;58.80;96188.09;299395;230;63019;-57
2021/03/12 20:21:34;;;;;;;0.70;0.70;;;;;;;6.05;59.02;96196.69;299395;251;63005;-57
2021/03/12 20:26:36;;;;;;;0.65;0.65;;;;;;;5.93;59.16;96182.75;299395;242;63009;-56
2021/03/12 20:31:38;;;;;;;0.60;0.60;;;;;;;6.02;58.94;96174.91;299395;287;63004;-55
2021/03/12 20:36:39;;;;;;;0.70;0.70;;;;;;;6.11;58.50;96191.28;299395;283;63013;-63
2021/03/12 20:41:40;;;;;;;0.65;0.65;;;;;;;6.23;58.03;96186.34;299395;232;63008;-54
2021/03/12 20:46:43;;;;;;;0.60;0.60;;;;;;;6.08;58.52;96189.13;299395;214;63009;-57
2021/03/12 20:51:46;;;;;;;0.82;0.82;;;;;;;6.11;58.40;96191.28;299395;229;63005;-54
2021/03/12 20:56:50;;;;;;;0.70;0.70;;;;;;;6.07;58.73;96174.87;299395;240;63008;-57
2021/03/12 21:01:52;;;;;;;0.80;0.80;;;;;;;6.22;57.58;96152.41;299417;302;63004;-60
2021/03/12 21:06:54;;;;;;;0.70;0.70;;;;;;;6.24;57.54;96166.38;299395;369;63009;-55
2021/03/12 21:11:55;;;;;;;0.60;0.60;;;;;;;6.15;57.88;96189.63;299395;276;63004;-59
2021/03/12 21:16:56;;;;;;;0.60;0.60;;;;;;;6.34;57.14;96182.44;299395;276;63009;-65
2021/03/12 21:21:59;;;;;;;0.62;0.62;;;;;;;6.39;57.08;96174.31;299395;204;63005;-57
2021/03/12 21:27:01;;;;;;;0.60;0.60;;;;;;;6.45;56.92;96205.53;299395;252;63008;-57
2021/03/12 21:32:03;;;;;;;0.60;0.60;;;;;;;6.42;56.97;96216.06;299395;215;63004;-59
2021/03/12 21:37:06;;;;;;;0.60;0.60;;;;;;;6.61;55.88;96231.25;299395;234;63009;-58
2021/03/12 21:42:08;;;;;;;0.90;0.90;;;;;;;6.66;58.65;96276.22;299395;206;63004;-57
2021/03/12 21:47:10;;;;;;;0.70;0.70;;;;;;;5.39;67.72;96318.13;299395;203;63009;-58
2021/03/12 21:52:11;;;;;;;0.70;0.70;;;;;;;4.37;73.97;96322.00;299395;215;63005;-56
2021/03/12 21:57:12;;;;;;;0.70;0.70;;;;;;;3.87;76.90;96328.06;299395;226;63009;-57
2021/03/12 22:02:13;;;;;;;0.70;0.70;;;;;;;3.69;77.17;96334.72;299395;238;63004;-57
2021/03/12 22:07:14;;;;;;;0.70;0.70;;;;;;;3.51;78.94;96327.13;299395;213;63009;-57
2021/03/12 22:12:15;;;;;;;0.70;0.70;;;;;;;3.49;78.19;96313.97;299395;231;63005;-56
2021/03/12 22:17:16;;;;;;;0.70;0.70;;;;;;;3.28;79.39;96302.34;299395;198;63009;-57
2021/03/12 22:22:18;;;;;;;0.70;0.70;;;;;;;3.41;79.22;96305.63;299394;290;64005;-62
2021/03/12 22:27:19;;;;;;;0.70;0.70;;;;;;;3.48;78.94;96304.31;299394;242;64014;-57
2021/03/12 22:32:23;;;;;;;0.70;0.70;;;;;;;3.39;79.54;96294.34;299394;227;63004;-58
2021/03/12 22:37:24;;;;;;;0.70;0.70;;;;;;;3.42;78.89;96283.09;299417;222;63009;-58
2021/03/12 22:42:28;;;;;;;0.70;0.70;;;;;;;3.52;78.31;96278.56;299395;219;63005;-57
2021/03/12 22:47:29;;;;;;;0.70;0.70;;;;;;;3.41;78.71;96292.22;299417;205;63009;-56
2021/03/12 22:52:31;;;;;;;0.70;0.70;;;;;;;3.56;77.77;96286.91;299395;258;63005;-57
2021/03/12 22:57:32;;;;;;;0.70;0.70;;;;;;;3.54;77.82;96291.72;299395;219;63009;-57
2021/03/12 23:02:33;;;;;;;0.73;0.73;;;;;;;3.39;78.83;96291.69;299395;253;63004;-57
2021/03/12 23:07:34;;;;;;;0.70;0.70;;;;;;;3.43;78.28;96295.44;299395;221;63009;-58
2021/03/12 23:12:39;;;;;;;0.70;0.70;;;;;;;3.35;78.92;96291.38;299395;266;63005;-57
2021/03/12 23:17:40;;;;;;;0.70;0.70;;;;;;;3.21;80.22;96293.72;299395;226;63010;-57
2021/03/12 23:22:47;;;;;;;0.70;0.70;;;;;;;3.25;79.75;96294.81;299395;222;63005;-56
2021/03/12 23:27:48;;;;;;;0.70;0.70;;;;;;;3.28;80.04;96288.94;299395;243;63009;-56
2021/03/12 23:32:49;;;;;;;0.70;0.70;;;;;;;3.46;79.22;96268.91;299395;257;63004;-57
2021/03/12 23:37:51;;;;;;;0.70;0.70;;;;;;;3.10;81.28;96254.56;299395;229;63009;-57
2021/03/12 23:42:52;;;;;;;0.70;0.70;;;;;;;3.27;81.24;96260.50;299395;221;63005;-57
2021/03/12 23:47:54;;;;;;;0.70;0.70;;;;;;;3.24;80.85;96250.31;299395;259;63008;-57
2021/03/12 23:52:55;;;;;;;0.70;0.70;;;;;;;3.34;81.29;96261.09;299395;211;63004;-56
2021/03/12 23:57:56;;;;;;;0.70;0.70;;;;;;;3.40;80.86;96253.88;299395;245;63009;-57
